Time;durP1;ratioP1;P1;durP2;ratioP2;P2;SDS_P1;SDS_P2;PMS_P1;PMS_P2;Temp;Humidity;BMP_temperature;BMP_pressure;BME280_temperature;BME280_humidity;BME280_pressure;Samples;Min_cycle;Max_cycle;Signal;HPM_P1;HPM_P2
2022/08/14 00:04:29;;;;;;;25.67;11.20;;;18.30;99.90;;;;;;10396824;28;20068;-83
2022/08/14 00:09:29;;;;;;;27.70;11.50;;;18.20;99.90;;;;;;10405871;28;20404;-83
2022/08/14 00:14:30;;;;;;;24.65;11.55;;;18.20;99.90;;;;;;10404724;28;20030;-82
2022/08/14 00:19:30;;;;;;;23.40;10.55;;;18.20;99.90;;;;;;10395741;28;20021;-83
2022/08/14 00:24:31;;;;;;;27.58;12.07;;;18.20;99.90;;;;;;10403414;28;20029;-83
2022/08/14 00:29:32;;;;;;;25.35;11.68;;;18.20;99.90;;;;;;10404174;28;20128;-83
2022/08/14 00:34:32;;;;;;;25.48;10.48;;;18.10;99.90;;;;;;10403111;28;20109;-83
2022/08/14 00:39:33;;;;;;;26.08;11.00;;;18.10;99.90;;;;;;10395718;28;20032;-84
2022/08/14 00:44:33;;;;;;;26.20;11.18;;;18.10;99.90;;;;;;10405243;28;20034;-83
2022/08/14 00:49:35;;;;;;;24.95;10.63;;;18.20;99.90;;;;;;10402572;28;20128;-85
2022/08/14 00:54:37;;;;;;;21.05;10.73;;;18.20;99.90;;;;;;10409633;28;20049;-84
2022/08/14 00:59:38;;;;;;;24.08;10.90;;;18.20;99.90;;;;;;10401163;28;20014;-83
2022/08/14 01:04:39;;;;;;;24.50;10.20;;;18.20;99.90;;;;;;10402781;28;20046;-83
2022/08/14 01:09:40;;;;;;;23.13;9.63;;;18.20;99.90;;;;;;10401684;28;20629;-83
2022/08/14 01:14:41;;;;;;;21.27;10.55;;;18.20;99.90;;;;;;10407542;28;20011;-85
2022/08/14 01:25:01;;;;;;;22.83;10.60;;;18.10;99.90;;;;;;10402115;28;20026;-83
2022/08/14 01:30:02;;;;;;;22.48;10.10;;;18.10;99.90;;;;;;10407859;28;20496;-84
2022/08/14 01:35:06;;;;;;;25.80;10.77;;;18.00;99.90;;;;;;10403358;28;20144;-85
2022/08/14 01:40:07;;;;;;;28.10;12.00;;;18.00;99.90;;;;;;10404459;28;20045;-83
2022/08/14 01:45:14;;;;;;;22.80;9.65;;;17.90;99.90;;;;;;10405458;28;20029;-83
2022/08/14 01:50:17;;;;;;;353.85;81.32;;;17.90;99.90;;;;;;10402114;28;20049;-82
2022/08/14 01:55:17;;;;;;;1999.90;999.90;;;17.80;99.90;;;;;;10402200;28;20036;-82
2022/08/14 02:00:18;;;;;;;22.92;11.52;;;17.80;99.90;;;;;;10400286;28;20032;-83
2022/08/14 02:05:18;;;;;;;27.80;12.52;;;17.70;99.90;;;;;;10401779;28;20557;-83
2022/08/14 02:10:20;;;;;;;32.95;14.50;;;17.70;99.90;;;;;;10402957;28;20167;-83
2022/08/14 02:15:21;;;;;;;35.67;13.88;;;17.70;99.90;;;;;;10370275;28;20196;-82
2022/08/14 02:20:22;;;;;;;0.10;0.10;;;17.60;99.90;;;;;;10405138;28;20033;-82
2022/08/14 02:25:23;;;;;;;20.85;9.43;;;17.60;99.90;;;;;;10390521;28;20543;-82
2022/08/14 02:30:25;;;;;;;27.27;15.73;;;17.70;99.90;;;;;;10386664;28;20482;-82
2022/08/14 02:35:26;;;;;;;13.95;5.50;;;17.70;99.90;;;;;;10398149;28;20063;-81
2022/08/14 02:40:30;;;;;;;343.48;280.05;;;17.80;99.90;;;;;;10403413;28;20588;-80
2022/08/14 02:45:34;;;;;;;39.20;15.85;;;17.80;99.90;;;;;;10397451;28;20029;-81
2022/08/14 02:50:36;;;;;;;33.75;14.50;;;17.90;99.90;;;;;;10398202;28;20103;-82
2022/08/14 02:55:39;;;;;;;32.95;16.83;;;17.90;99.90;;;;;;10386165;28;20060;-81
2022/08/14 03:00:39;;;;;;;35.50;16.88;;;17.90;99.90;;;;;;10399369;28;20022;-81
2022/08/14 03:05:40;;;;;;;32.33;15.30;;;17.90;99.90;;;;;;10391898;28;20041;-81
2022/08/14 03:10:40;;;;;;;31.65;15.98;;;18.00;99.90;;;;;;10360326;28;20046;-80
2022/08/14 03:15:52;;;;;;;40.60;20.95;;;18.00;99.90;;;;;;10369766;28;20022;-81
2022/08/14 03:20:53;;;;;;;41.15;20.08;;;18.00;99.90;;;;;;10402417;28;20034;-83
2022/08/14 03:25:53;;;;;;;46.60;22.05;;;17.90;99.90;;;;;;10405102;28;20042;-81
2022/08/14 03:30:56;;;;;;;51.90;22.02;;;17.90;99.90;;;;;;10389363;28;20046;-80
2022/08/14 03:35:58;;;;;;;47.15;21.98;;;17.90;99.90;;;;;;10404320;28;20018;-82
2022/08/14 03:40:58;;;;;;;49.65;20.90;;;17.90;99.90;;;;;;10393384;28;20033;-83
2022/08/14 03:45:59;;;;;;;59.00;25.30;;;17.90;99.90;;;;;;10401317;28;20064;-81
2022/08/14 03:50:59;;;;;;;51.47;22.67;;;18.00;99.90;;;;;;10383055;28;20497;-83
2022/08/14 03:56:00;;;;;;;55.30;27.02;;;18.00;99.90;;;;;;10403214;28;20037;-82
2022/08/14 04:01:01;;;;;;;73.80;30.00;;;18.00;99.90;;;;;;10398038;28;20601;-82
2022/08/14 04:06:02;;;;;;;72.28;29.05;;;18.00;99.90;;;;;;10402757;28;20159;-84
2022/08/14 04:11:04;;;;;;;60.63;27.45;;;18.00;99.90;;;;;;10401622;28;20052;-83
2022/08/14 04:16:07;;;;;;;73.35;31.17;;;18.00;99.90;;;;;;10401446;28;20049;-82
2022/08/14 04:21:09;;;;;;;96.18;34.35;;;18.00;99.90;;;;;;10384822;28;20041;-83
2022/08/14 04:26:12;;;;;;;75.88;30.65;;;18.00;99.90;;;;;;10406918;28;20090;-82
2022/08/14 04:31:13;;;;;;;90.28;34.60;;;18.10;99.90;;;;;;10398809;28;20144;-81
2022/08/14 04:36:14;;;;;;;78.53;30.50;;;18.20;99.90;;;;;;10405241;28;20068;-82
2022/08/14 04:52:14;;;;;;;95.65;37.17;;;18.10;99.90;;;;;;10379802;28;20090;-80
2022/08/14 04:57:15;;;;;;;97.13;37.00;;;18.10;99.90;;;;;;10408173;28;20034;-80
2022/08/14 05:02:16;;;;;;;100.20;37.92;;;18.00;99.90;;;;;;10404981;28;20064;-81
2022/08/14 05:07:16;;;;;;;95.20;36.47;;;18.00;99.90;;;;;;10406199;28;20045;-81
2022/08/14 05:12:17;;;;;;;87.68;32.80;;;18.00;99.90;;;;;;10408219;28;20610;-80
2022/08/14 05:17:17;;;;;;;82.20;35.03;;;18.00;99.90;;;;;;10407840;28;20453;-80
2022/08/14 05:22:18;;;;;;;90.53;36.67;;;18.10;99.90;;;;;;10406850;28;20071;-80
2022/08/14 05:27:19;;;;;;;73.93;31.48;;;18.10;99.90;;;;;;10406125;28;20055;-82
2022/08/14 05:32:21;;;;;;;72.05;30.90;;;18.10;99.90;;;;;;10406133;28;20041;-82
2022/08/14 05:37:22;;;;;;;67.80;29.75;;;18.00;99.90;;;;;;10407439;28;20075;-82
2022/08/14 05:42:23;;;;;;;42.30;15.43;;;18.00;99.90;;;;;;10407488;28;20021;-83
2022/08/14 05:47:23;;;;;;;0.22;0.22;;;18.00;99.90;;;;;;10398107;28;20025;-84
2022/08/14 05:52:24;;;;;;;0.22;0.22;;;17.90;99.90;;;;;;10407241;28;20029;-85
2022/08/14 05:57:25;;;;;;;0.20;0.20;;;18.00;99.90;;;;;;10403579;28;20025;-84
2022/08/14 06:02:26;;;;;;;0.77;0.77;;;18.00;99.90;;;;;;10384745;28;20029;-82
2022/08/14 06:07:27;;;;;;;0.65;0.65;;;18.00;99.90;;;;;;10402713;28;20057;-84
2022/08/14 06:12:27;;;;;;;0.25;0.20;;;17.90;99.90;;;;;;10403485;28;20049;-83
2022/08/14 06:17:28;;;;;;;0.10;0.10;;;18.00;99.90;;;;;;10397609;28;20469;-81
2022/08/14 06:22:28;;;;;;;1.27;1.25;;;18.00;99.90;;;;;;10402752;28;20063;-84
2022/08/14 06:27:35;;;;;;;0.50;0.50;;;17.90;99.90;;;;;;10403818;28;20546;-82
2022/08/14 06:32:36;;;;;;;0.03;0.03;;;17.90;99.90;;;;;;10403001;28;20043;-81
2022/08/14 06:37:47;;;;;;;0.63;0.63;;;18.00;99.90;;;;;;10402529;28;20930;-82
2022/08/14 06:42:49;;;;;;;7.22;1.42;;;18.10;99.90;;;;;;10403113;28;20144;-83
2022/08/14 06:47:49;;;;;;;0.60;0.60;;;18.20;99.90;;;;;;10402110;28;20350;-81
2022/08/14 06:52:50;;;;;;;0.60;0.43;;;18.20;99.90;;;;;;10382685;28;20057;-80
2022/08/14 06:57:51;;;;;;;2.15;0.50;;;18.30;99.90;;;;;;10375206;28;20030;-83
2022/08/14 07:08:14;;;;;;;0.38;0.32;;;18.40;99.90;;;;;;10389721;28;20080;-81
2022/08/14 07:13:17;;;;;;;0.25;0.22;;;18.50;99.90;;;;;;10357931;28;20069;-82
2022/08/14 07:18:22;;;;;;;0.35;0.35;;;18.50;99.90;;;;;;10379803;28;20586;-80
2022/08/14 07:23:24;;;;;;;0.15;0.10;;;18.50;99.90;;;;;;10362488;28;20049;-82
2022/08/14 07:28:36;;;;;;;0.00;0.00;;;18.50;99.90;;;;;;10395929;28;20139;-81
2022/08/14 07:33:41;;;;;;;0.10;0.10;;;18.60;99.90;;;;;;10400974;28;20112;-81
2022/08/14 07:38:42;;;;;;;0.08;0.08;;;18.70;99.90;;;;;;10401543;28;20029;-81
2022/08/14 07:43:43;;;;;;;1.25;0.73;;;19.10;99.90;;;;;;10398926;28;20026;-81
2022/08/14 07:48:43;;;;;;;1.10;0.17;;;19.20;99.90;;;;;;10398311;28;20044;-82
2022/08/14 07:53:44;;;;;;;0.00;0.00;;;19.30;99.90;;;;;;10399709;28;20428;-82
2022/08/14 07:58:44;;;;;;;0.08;0.08;;;19.10;99.90;;;;;;10408570;28;20025;-84
2022/08/14 08:03:46;;;;;;;0.20;0.20;;;19.00;99.90;;;;;;10409285;28;20585;-83
2022/08/14 08:08:48;;;;;;;1.05;0.73;;;19.00;99.90;;;;;;10403946;28;20046;-84
2022/08/14 08:13:50;;;;;;;0.38;0.38;;;18.90;99.90;;;;;;10406314;28;20037;-84
2022/08/14 08:18:50;;;;;;;1.00;0.52;;;19.00;99.90;;;;;;10408615;28;20026;-82
2022/08/14 08:23:52;;;;;;;0.10;0.10;;;19.00;99.90;;;;;;10409029;28;20033;-84
2022/08/14 08:28:57;;;;;;;0.13;0.13;;;19.00;99.90;;;;;;10410127;28;20041;-83
2022/08/14 08:33:58;;;;;;;0.13;0.13;;;19.30;99.90;;;;;;10405729;28;20503;-82
2022/08/14 08:38:59;;;;;;;0.00;0.00;;;19.20;99.90;;;;;;10407663;28;20116;-83
2022/08/14 08:44:04;;;;;;;1.45;0.60;;;19.20;99.90;;;;;;10406470;28;20450;-83
2022/08/14 08:49:05;;;;;;;0.10;0.10;;;19.30;99.90;;;;;;10403842;28;20112;-83
2022/08/14 08:54:06;;;;;;;0.00;0.00;;;19.40;99.90;;;;;;10401718;28;20497;-84
2022/08/14 08:59:19;;;;;;;0.00;0.00;;;19.50;99.90;;;;;;10390296;28;20059;-83
2022/08/14 09:04:20;;;;;;;0.00;0.00;;;19.70;99.90;;;;;;10387167;28;20033;-84
2022/08/14 09:09:26;;;;;;;0.00;0.00;;;19.90;99.90;;;;;;10403652;28;20417;-84
2022/08/14 09:14:33;;;;;;;0.00;0.00;;;20.20;99.90;;;;;;10403653;28;20025;-84
2022/08/14 09:19:36;;;;;;;0.00;0.00;;;20.40;99.90;;;;;;10404348;28;20026;-83
2022/08/14 09:24:38;;;;;;;0.00;0.00;;;20.40;99.90;;;;;;10404441;28;20033;-84
2022/08/14 09:29:40;;;;;;;0.22;0.15;;;20.50;99.90;;;;;;10403550;28;20816;-84
2022/08/14 09:34:51;;;;;;;0.00;0.00;;;20.40;99.90;;;;;;10403734;28;20084;-83
2022/08/14 09:40:13;;;;;;;0.00;0.00;;;20.20;99.90;;;;;;10376575;28;20041;-87
2022/08/14 09:45:22;;;;;;;0.00;0.00;;;20.00;99.90;;;;;;10387422;28;20033;-85
2022/08/14 09:50:47;;;;;;;0.10;0.10;;;19.70;99.90;;;;;;10392173;28;20072;-81
2022/08/14 09:55:57;;;;;;;0.00;0.00;;;19.70;99.90;;;;;;10375718;28;20121;-85
2022/08/14 10:00:59;;;;;;;0.08;0.08;;;20.10;99.90;;;;;;10396815;28;20026;-86
2022/08/14 10:06:06;;;;;;;0.10;0.10;;;20.40;99.90;;;;;;10372511;28;20049;-84
2022/08/14 10:11:24;;;;;;;0.00;0.00;;;20.50;99.90;;;;;;10403483;28;20057;-85
2022/08/14 10:16:28;;;;;;;0.22;0.22;;;20.60;99.90;;;;;;10395491;28;20026;-87
2022/08/14 10:21:29;;;;;;;0.00;0.00;;;20.70;99.90;;;;;;10381808;28;20025;-83
2022/08/14 10:26:30;;;;;;;0.00;0.00;;;20.90;99.90;;;;;;10399348;28;20030;-84
2022/08/14 10:31:32;;;;;;;1.85;0.45;;;20.90;99.90;;;;;;10370558;28;20485;-83
2022/08/14 10:36:40;;;;;;;0.13;0.13;;;20.80;99.90;;;;;;10381335;28;20052;-84
2022/08/14 10:41:43;;;;;;;0.00;0.00;;;20.70;99.90;;;;;;10396463;28;20108;-84
2022/08/14 10:47:04;;;;;;;0.00;0.00;;;20.60;99.90;;;;;;10374301;28;20030;-82
2022/08/14 10:52:23;;;;;;;0.43;0.20;;;20.70;99.90;;;;;;10400173;28;20476;-83
2022/08/14 10:57:27;;;;;;;0.10;0.10;;;20.70;99.90;;;;;;10404969;28;20021;-82
2022/08/14 11:03:27;;;;;;;0.17;0.17;;;20.70;99.90;;;;;;10381800;28;20049;-83
2022/08/14 11:08:42;;;;;;;0.00;0.00;;;20.70;99.90;;;;;;10398949;28;20125;-81
2022/08/14 11:13:59;;;;;;;0.32;0.28;;;21.20;99.90;;;;;;10376262;28;20049;-82
2022/08/14 11:19:11;;;;;;;0.20;0.20;;;21.80;99.90;;;;;;10395885;28;20051;-83
2022/08/14 11:24:27;;;;;;;0.10;0.10;;;22.30;99.90;;;;;;10380882;28;20041;-84
2022/08/14 11:29:29;;;;;;;0.10;0.10;;;22.20;99.90;;;;;;10392636;28;20148;-82
2022/08/14 11:34:36;;;;;;;0.15;0.15;;;22.30;99.90;;;;;;10402993;28;20048;-82
2022/08/14 11:39:44;;;;;;;0.30;0.30;;;22.60;99.90;;;;;;10389164;28;20425;-85
2022/08/14 11:45:06;;;;;;;0.70;0.55;;;23.20;99.90;;;;;;10379484;28;20115;-83
2022/08/14 11:50:26;;;;;;;0.30;0.22;;;23.30;99.90;;;;;;10386265;28;20101;-84
2022/08/14 11:55:33;;;;;;;0.00;0.00;;;23.30;99.90;;;;;;10377754;28;20053;-84
2022/08/14 12:01:29;;;;;;;;;;;;;;;;;;;;;
2022/08/14 12:07:03;;;;;;;0.00;0.00;;;24.40;99.90;;;;;;10406993;28;20057;-83
2022/08/14 12:12:26;;;;;;;0.13;0.13;;;24.90;99.90;;;;;;10407187;28;20051;-84
2022/08/14 12:17:49;;;;;;;0.13;0.13;;;24.60;99.90;;;;;;10381227;28;20021;-83
2022/08/14 12:22:49;;;;;;;0.00;0.00;;;24.20;99.90;;;;;;10388258;28;20220;-84
2022/08/14 12:27:52;;;;;;;1.02;0.52;;;24.10;99.90;;;;;;10407572;28;20026;-85
2022/08/14 12:32:55;;;;;;;0.55;0.45;;;23.70;99.90;;;;;;10402277;28;20042;-82
2022/08/14 12:37:55;;;;;;;1.08;0.57;;;23.70;99.90;;;;;;10410795;28;20032;-85
2022/08/14 12:43:02;;;;;;;0.00;0.00;;;23.70;99.90;;;;;;10401968;28;20037;-85
2022/08/14 12:48:09;;;;;;;1.60;0.90;;;23.60;99.90;;;;;;10401106;28;20074;-85
2022/08/14 12:53:14;;;;;;;3.67;1.08;;;23.40;99.90;;;;;;10388024;28;20405;-84
2022/08/14 12:58:50;;;;;;;0.20;0.20;;;23.50;99.90;;;;;;10380674;28;20365;-85
2022/08/14 13:04:09;;;;;;;0.10;0.10;;;23.70;99.90;;;;;;10387995;28;20051;-83
2022/08/14 13:09:59;;;;;;;7.82;3.38;;;24.00;99.90;;;;;;10398582;28;20516;-84
2022/08/14 13:15:51;;;;;;;9.27;4.45;;;24.00;99.90;;;;;;10403676;28;20048;-83
2022/08/14 13:20:53;;;;;;;10.07;6.85;;;23.80;99.90;;;;;;10398022;28;20112;-83
2022/08/14 13:25:55;;;;;;;9.73;5.25;;;23.60;99.90;;;;;;10402930;28;20033;-83
2022/08/14 13:30:59;;;;;;;11.15;8.15;;;23.70;99.90;;;;;;10401600;28;20040;-82
2022/08/14 13:54:31;;;;;;;11.90;6.47;;;24.20;99.90;;;;;;10234739;28;20043;-83
2022/08/14 14:06:55;;;;;;;13.32;8.57;;;24.40;99.90;;;;;;10215010;29;20425;-82
2022/08/14 14:12:02;;;;;;;16.42;8.63;;;24.20;99.90;;;;;;10131977;29;20420;-84
2022/08/14 14:17:05;;;;;;;12.27;7.95;;;24.00;99.90;;;;;;10322595;28;20683;-82
2022/08/14 14:22:09;;;;;;;14.18;7.55;;;24.20;99.90;;;;;;10355399;28;20449;-82
2022/08/14 14:27:18;;;;;;;15.48;8.65;;;24.20;99.90;;;;;;10353257;28;20468;-83
2022/08/14 14:32:22;;;;;;;10.73;7.32;;;24.30;99.90;;;;;;10350901;28;20045;-81
2022/08/14 14:37:25;;;;;;;11.17;5.93;;;24.40;99.90;;;;;;10362460;28;20437;-81
2022/08/14 14:42:27;;;;;;;8.73;5.35;;;24.30;99.90;;;;;;10365638;28;20662;-83
2022/08/14 14:47:32;;;;;;;11.68;7.38;;;24.10;99.90;;;;;;10341723;28;20040;-83
2022/08/14 14:52:32;;;;;;;;;;;24.10;99.90;;;;;;10361799;28;20088;-82
2022/08/14 14:57:33;;;;;;;9.85;5.45;;;24.00;99.90;;;;;;10354592;28;20001;-83
2022/08/14 15:02:41;;;;;;;7.05;5.43;;;24.00;99.90;;;;;;10361272;28;20561;-83
2022/08/14 15:07:42;;;;;;;7.28;5.70;;;23.90;99.90;;;;;;10363681;28;20095;-83
2022/08/14 15:12:44;;;;;;;6.53;5.45;;;23.70;99.90;;;;;;10398542;28;20049;-82
2022/08/14 15:17:44;;;;;;;6.88;5.05;;;23.50;99.90;;;;;;10399778;28;20040;-82
2022/08/14 15:22:45;;;;;;;6.55;4.88;;;23.60;99.90;;;;;;10382945;28;20469;-82
2022/08/14 15:27:48;;;;;;;6.22;5.53;;;24.00;99.90;;;;;;10396331;28;20042;-81
2022/08/14 15:32:49;;;;;;;7.30;5.55;;;24.00;99.90;;;;;;10397019;28;20076;-84
2022/08/14 15:37:50;;;;;;;8.10;5.75;;;23.80;99.90;;;;;;10401321;28;20438;-83
2022/08/14 15:42:50;;;;;;;7.88;5.75;;;23.90;99.90;;;;;;10402402;28;20037;-83
2022/08/14 15:47:51;;;;;;;8.57;5.90;;;23.80;99.90;;;;;;10401845;28;20033;-84
2022/08/14 15:52:52;;;;;;;7.20;5.50;;;23.70;99.90;;;;;;10401285;28;20034;-83
2022/08/14 15:57:52;;;;;;;7.30;5.60;;;23.50;99.90;;;;;;10398879;28;20025;-82
2022/08/14 16:02:53;;;;;;;7.18;5.53;;;23.40;99.90;;;;;;10397666;28;20535;-81
2022/08/14 16:08:16;;;;;;;7.85;6.25;;;23.30;99.90;;;;;;10396202;28;20050;-84
2022/08/14 16:13:17;;;;;;;12.38;7.65;;;23.30;99.90;;;;;;10381787;28;20080;-88
2022/08/14 16:18:18;;;;;;;8.02;7.00;;;23.30;99.90;;;;;;10381437;28;20437;-86
2022/08/14 16:23:19;;;;;;;6.78;6.07;;;23.50;99.90;;;;;;10400715;28;20073;-85
2022/08/14 16:28:21;;;;;;;7.47;5.60;;;23.60;99.90;;;;;;10404622;28;20116;-87
2022/08/14 16:33:22;;;;;;;7.75;5.78;;;23.90;99.90;;;;;;10403464;28;20112;-86
2022/08/14 16:38:24;;;;;;;7.68;6.35;;;23.90;99.90;;;;;;10407490;28;20053;-86
2022/08/14 16:43:26;;;;;;;7.88;6.18;;;23.90;99.90;;;;;;10410403;28;20107;-86
2022/08/14 16:54:31;;;;;;;6.53;5.60;;;23.80;99.90;;;;;;10394036;28;20115;-86
2022/08/14 16:59:32;;;;;;;9.48;7.15;;;23.70;99.90;;;;;;10389743;28;20120;-86
2022/08/14 17:04:34;;;;;;;7.75;6.68;;;23.60;99.90;;;;;;10405390;28;20488;-84
2022/08/14 17:09:48;;;;;;;9.70;7.28;;;23.50;99.90;;;;;;10412015;28;20792;-84
2022/08/14 17:15:04;;;;;;;9.45;7.50;;;23.40;99.90;;;;;;10388858;28;20044;-83
2022/08/14 17:20:48;;;;;;;10.57;7.78;;;23.20;99.90;;;;;;10316451;28;20593;-83
2022/08/14 17:32:13;;;;;;;12.70;8.02;;;23.00;99.90;;;;;;10251050;28;20137;-83
2022/08/14 17:37:23;;;;;;;10.50;8.40;;;22.90;99.90;;;;;;10314423;28;20046;-83
2022/08/14 17:42:54;;;;;;;10.18;8.00;;;22.70;99.90;;;;;;10289007;28;20050;-83
2022/08/14 17:47:56;;;;;;;12.10;8.35;;;22.50;99.90;;;;;;10312873;28;20037;-83
2022/08/14 17:53:00;;;;;;;11.98;8.60;;;22.20;99.90;;;;;;10397398;28;20067;-83
2022/08/14 17:58:07;;;;;;;11.40;9.05;;;21.90;99.90;;;;;;10402521;28;20025;-82
2022/08/14 18:03:29;;;;;;;11.00;8.40;;;21.60;99.90;;;;;;10383871;28;20036;-83
2022/08/14 18:08:30;;;;;;;15.35;10.77;;;21.40;99.90;;;;;;10379274;28;20464;-86
2022/08/14 18:13:32;;;;;;;15.18;9.98;;;21.10;99.90;;;;;;10394036;28;20037;-85
2022/08/14 18:18:34;;;;;;;14.05;10.23;;;21.00;99.90;;;;;;10403495;28;20555;-86
2022/08/14 18:24:14;;;;;;;18.90;10.98;;;20.90;99.90;;;;;;10376351;28;20424;-86
2022/08/14 18:29:16;;;;;;;16.75;10.48;;;20.90;99.90;;;;;;10377128;28;20051;-86
2022/08/14 18:34:47;;;;;;;13.98;10.40;;;21.00;99.90;;;;;;10408801;28;20087;-86
2022/08/14 18:39:48;;;;;;;14.98;11.32;;;21.10;99.90;;;;;;10383271;28;20038;-85
2022/08/14 18:45:34;;;;;;;15.38;11.15;;;21.10;99.90;;;;;;10386973;28;20033;-86
2022/08/14 18:51:02;;;;;;;15.88;11.90;;;21.10;99.90;;;;;;10295890;28;20056;-86
2022/08/14 19:02:26;;;;;;;16.67;11.63;;;21.00;99.90;;;;;;10383601;28;20044;-86
2022/08/14 19:08:10;;;;;;;14.50;11.18;;;21.00;99.90;;;;;;10384133;28;20037;-84
2022/08/14 19:19:16;;;;;;;16.95;10.18;;;20.90;99.90;;;;;;10357792;28;20124;-85
2022/08/14 19:24:38;;;;;;;16.05;8.20;;;20.80;99.90;;;;;;10361126;28;20069;-84
2022/08/14 19:30:22;;;;;;;1358.32;567.42;;;20.70;99.90;;;;;;10359796;28;20033;-84
2022/08/14 19:35:34;;;;;;;18.42;12.02;;;20.70;99.90;;;;;;10302847;28;20040;-83
2022/08/14 19:40:38;;;;;;;19.88;14.55;;;20.70;99.90;;;;;;10338331;28;20030;-84
2022/08/14 19:45:39;;;;;;;18.00;13.30;;;20.70;99.90;;;;;;10351816;28;20029;-84
2022/08/14 19:50:59;;;;;;;19.40;12.73;;;20.70;99.90;;;;;;10322001;28;20065;-83
2022/08/14 19:56:02;;;;;;;18.20;13.77;;;20.60;99.90;;;;;;10364912;28;20026;-84
2022/08/14 20:01:03;;;;;;;20.83;14.27;;;20.50;99.90;;;;;;10341315;28;20397;-84
2022/08/14 20:06:03;;;;;;;19.17;14.20;;;20.40;99.90;;;;;;10367798;28;20040;-83
2022/08/14 20:11:23;;;;;;;19.15;13.48;;;20.30;99.90;;;;;;10382181;28;20076;-84
2022/08/14 20:16:35;;;;;;;20.70;14.98;;;20.20;99.90;;;;;;10406976;28;20700;-83
2022/08/14 20:21:44;;;;;;;22.73;15.18;;;20.10;99.90;;;;;;10404431;28;20037;-84
2022/08/14 20:27:19;;;;;;;24.80;17.48;;;20.10;99.90;;;;;;10406549;28;20029;-84
2022/08/14 20:32:20;;;;;;;19.95;13.45;;;20.00;99.90;;;;;;10406489;28;20038;-84
2022/08/14 20:37:25;;;;;;;20.02;13.75;;;19.90;99.90;;;;;;10402927;28;20041;-84
2022/08/14 20:48:06;;;;;;;28.08;15.43;;;19.50;99.90;;;;;;10410535;28;20045;-84
2022/08/14 20:54:02;;;;;;;29.75;18.55;;;19.20;99.90;;;;;;10398689;28;20037;-85
2022/08/14 21:05:04;;;;;;;26.50;17.85;;;19.10;99.90;;;;;;10395778;28;20041;-85
2022/08/14 21:10:25;;;;;;;27.60;17.52;;;19.00;99.90;;;;;;10404167;28;20057;-85
2022/08/14 21:15:26;;;;;;;25.95;17.70;;;19.10;99.90;;;;;;10379681;28;20124;-84
2022/08/14 21:20:27;;;;;;;28.40;19.02;;;19.00;99.90;;;;;;10403968;28;20043;-83
2022/08/14 21:25:29;;;;;;;34.25;21.65;;;18.90;99.90;;;;;;10405555;28;20117;-83
2022/08/14 21:30:30;;;;;;;31.20;18.67;;;18.90;99.90;;;;;;10398533;28;20069;-83
2022/08/14 21:35:30;;;;;;;33.83;19.73;;;19.00;99.90;;;;;;10408472;28;20438;-83
2022/08/14 21:40:31;;;;;;;31.48;21.15;;;19.00;99.90;;;;;;10410027;28;20060;-83
2022/08/14 21:45:32;;;;;;;33.70;22.30;;;19.00;99.90;;;;;;10398217;28;20025;-83
2022/08/14 21:50:33;;;;;;;31.02;19.77;;;19.00;99.90;;;;;;10389325;28;20041;-83
2022/08/14 21:55:36;;;;;;;35.22;22.00;;;19.00;99.90;;;;;;10394463;28;20037;-83
2022/08/14 22:00:40;;;;;;;33.65;20.10;;;19.00;99.90;;;;;;10395135;28;20014;-83
2022/08/14 22:05:42;;;;;;;27.77;18.67;;;19.00;99.90;;;;;;10385196;28;20488;-83
2022/08/14 22:10:46;;;;;;;29.05;18.83;;;19.20;99.90;;;;;;10391054;28;20060;-83
2022/08/14 22:15:47;;;;;;;29.52;19.25;;;19.10;99.90;;;;;;10393618;28;20063;-83
2022/08/14 22:20:51;;;;;;;31.02;19.50;;;19.00;99.90;;;;;;10381696;28;20036;-84
2022/08/14 22:25:53;;;;;;;30.27;20.55;;;18.80;99.90;;;;;;10397027;28;20040;-83
2022/08/14 22:30:55;;;;;;;33.50;21.88;;;18.70;99.90;;;;;;10385243;28;20040;-83
2022/08/14 22:35:55;;;;;;;31.08;21.17;;;18.70;99.90;;;;;;10400253;28;20022;-84
2022/08/14 22:40:56;;;;;;;31.08;20.27;;;18.70;99.90;;;;;;10391968;28;20052;-83
2022/08/14 22:45:57;;;;;;;33.15;21.63;;;18.70;99.90;;;;;;10396793;28;20033;-83
2022/08/14 22:50:58;;;;;;;28.10;19.25;;;18.70;99.90;;;;;;10395771;28;20148;-83
2022/08/14 22:56:00;;;;;;;31.95;20.80;;;18.70;99.90;;;;;;10384385;28;20075;-83
2022/08/14 23:01:02;;;;;;;30.77;19.73;;;18.60;99.90;;;;;;10395724;28;20516;-83
2022/08/14 23:06:04;;;;;;;35.28;22.25;;;18.60;99.90;;;;;;10399011;28;20025;-83
2022/08/14 23:11:09;;;;;;;32.72;22.90;;;18.50;99.90;;;;;;10385032;28;20765;-83
2022/08/14 23:16:09;;;;;;;32.17;22.30;;;18.60;99.90;;;;;;10393559;28;20022;-83
2022/08/14 23:21:13;;;;;;;37.22;23.15;;;18.70;99.90;;;;;;10398234;28;20429;-83
2022/08/14 23:26:15;;;;;;;31.25;20.58;;;18.80;99.90;;;;;;10400730;28;20024;-83
2022/08/14 23:31:19;;;;;;;28.20;18.40;;;18.80;99.90;;;;;;10413888;28;20393;-83
2022/08/14 23:36:22;;;;;;;31.95;18.90;;;18.90;99.90;;;;;;10409034;28;20568;-83
2022/08/14 23:41:22;;;;;;;29.15;18.27;;;18.90;99.90;;;;;;10410533;28;20029;-83
2022/08/14 23:46:23;;;;;;;29.13;18.02;;;18.90;99.90;;;;;;10410962;28;20026;-83
2022/08/14 23:51:24;;;;;;;28.35;20.02;;;19.00;99.90;;;;;;10413885;28;20045;-83
2022/08/14 23:56:28;;;;;;;27.92;19.05;;;19.00;99.90;;;;;;10411091;28;20037;-83
